createdAt,value
2023-03-02T00:02:00.238Z,0.78
2023-03-02T00:04:29.419Z,0.61
2023-03-02T00:06:58.493Z,0.59
2023-03-02T00:09:24.912Z,0.56
2023-03-02T00:11:51.570Z,0.24
2023-03-02T00:14:17.975Z,0.19
2023-03-02T00:16:44.350Z,0.37
2023-03-02T00:19:10.827Z,0.53
2023-03-02T00:21:37.208Z,0.60
2023-03-02T00:24:04.589Z,0.45
2023-03-02T00:26:36.139Z,0.49
2023-03-02T00:29:03.193Z,0.33
2023-03-02T00:31:29.604Z,0.29
2023-03-02T00:33:56.015Z,0.30
2023-03-02T00:36:23.298Z,0.28
2023-03-02T00:38:49.995Z,-0.21
2023-03-02T00:41:16.847Z,-0.04
2023-03-02T00:43:43.243Z,0.07
2023-03-02T00:46:22.218Z,0.27
2023-03-02T00:48:49.064Z,0.16
2023-03-02T00:51:15.698Z,0.22
2023-03-02T00:53:42.179Z,0.25
2023-03-02T00:56:08.798Z,0.02
2023-03-02T00:58:35.281Z,-0.01
2023-03-02T01:01:09.994Z,0.07
2023-03-02T01:03:37.038Z,-0.01
2023-03-02T01:06:04.688Z,-0.51
2023-03-02T01:08:31.135Z,-0.37
2023-03-02T01:11:01.162Z,-0.23
2023-03-02T01:13:28.263Z,-0.10
2023-03-02T01:16:02.372Z,0.12
2023-03-02T01:18:28.852Z,0.13
2023-03-02T01:21:07.137Z,0.16
2023-03-02T01:23:33.821Z,0.26
2023-03-02T01:26:00.191Z,0.20
2023-03-02T01:28:26.663Z,0.20
2023-03-02T01:30:54.197Z,0.22
2023-03-02T01:33:21.446Z,0.19
2023-03-02T01:35:48.121Z,0.31
2023-03-02T01:38:14.823Z,0.26
2023-03-02T01:40:41.308Z,0.24
2023-03-02T01:43:12.765Z,0.11
2023-03-02T01:45:57.754Z,0.02
2023-03-02T01:48:39.228Z,-0.15
2023-03-02T01:51:07.365Z,-0.22
2023-03-02T01:53:35.014Z,-0.07
2023-03-02T01:56:02.761Z,-0.14
2023-03-02T01:58:32.396Z,-0.12
2023-03-02T02:00:58.841Z,-0.19
2023-03-02T02:03:27.762Z,-0.08
2023-03-02T02:06:17.893Z,0.01
2023-03-02T02:08:45.619Z,-0.13
2023-03-02T02:11:12.931Z,0.07
2023-03-02T02:13:39.456Z,0.02
2023-03-02T02:16:06.741Z,-0.05
2023-03-02T02:18:36.078Z,-0.02
2023-03-02T02:21:02.502Z,-0.06
2023-03-02T02:23:34.844Z,-0.04
2023-03-02T02:26:18.133Z,-0.11
2023-03-02T02:28:57.534Z,-0.19
2023-03-02T02:31:30.450Z,-0.25
2023-03-02T02:34:02.263Z,-0.12
2023-03-02T02:36:33.476Z,-0.19
2023-03-02T02:39:03.458Z,-0.20
2023-03-02T02:41:34.360Z,-0.16
2023-03-02T02:44:00.766Z,-0.13
2023-03-02T02:46:27.547Z,-0.17
2023-03-02T02:48:53.987Z,-0.14
2023-03-02T02:51:23.720Z,-0.02
2023-03-02T02:54:01.019Z,0.05
2023-03-02T02:56:30.969Z,0.09
2023-03-02T02:59:07.795Z,0.06
2023-03-02T03:01:34.812Z,-0.06
2023-03-02T03:04:04.036Z,-0.03
2023-03-02T03:06:38.340Z,-0.01
2023-03-02T03:09:10.602Z,-0.03
2023-03-02T03:11:38.290Z,-0.03
2023-03-02T03:14:11.805Z,-0.20
2023-03-02T03:16:40.742Z,-0.15
2023-03-02T03:19:16.385Z,-0.15
2023-03-02T03:21:42.866Z,-0.31
2023-03-02T03:24:09.313Z,-0.35
2023-03-02T03:26:35.748Z,-0.33
2023-03-02T03:29:02.720Z,-0.36
2023-03-02T03:31:29.126Z,-0.22
2023-03-02T03:33:56.250Z,-0.17
2023-03-02T03:36:22.850Z,-0.31
2023-03-02T03:38:49.252Z,-0.22
2023-03-02T03:41:15.702Z,-0.18
2023-03-02T03:43:42.089Z,-0.23
2023-03-02T03:46:08.604Z,-0.24
2023-03-02T03:48:35.046Z,-0.26
2023-03-02T03:51:01.443Z,-0.38
2023-03-02T03:53:28.164Z,-0.28
2023-03-02T03:55:56.819Z,-0.20
2023-03-02T03:58:24.555Z,-0.06
2023-03-02T04:00:52.027Z,-0.07
2023-03-02T04:03:19.685Z,-0.13
2023-03-02T04:05:46.911Z,-0.06
2023-03-02T04:08:13.377Z,-0.07
2023-03-02T04:10:39.974Z,-0.10
2023-03-02T04:13:06.753Z,0.01
2023-03-02T04:15:33.261Z,-0.10
2023-03-02T04:18:00.107Z,-0.09
2023-03-02T04:20:26.983Z,-0.21
2023-03-02T04:22:54.602Z,-0.23
2023-03-02T04:25:24.144Z,-0.45
2023-03-02T04:27:51.622Z,-0.28
2023-03-02T04:30:20.911Z,-0.22
2023-03-02T04:32:47.288Z,-0.23
2023-03-02T04:35:14.718Z,-0.23
2023-03-02T04:37:41.955Z,-0.24
2023-03-02T04:40:09.978Z,-0.20
2023-03-02T04:42:36.363Z,-0.32
2023-03-02T04:45:02.779Z,-0.23
2023-03-02T04:47:29.156Z,-0.39
2023-03-02T04:49:56.618Z,-0.28
2023-03-02T04:52:23.755Z,-0.34
2023-03-02T04:54:50.146Z,-0.36
2023-03-02T04:57:16.516Z,-0.49
2023-03-02T04:59:42.879Z,-0.37
2023-03-02T05:02:10.312Z,-0.40
2023-03-02T05:04:36.895Z,-0.39
2023-03-02T05:07:03.400Z,-0.38
2023-03-02T05:09:30.843Z,-0.57
2023-03-02T05:11:59.076Z,-0.44
2023-03-02T05:14:25.631Z,-0.41
2023-03-02T05:16:52.097Z,-0.36
2023-03-02T05:19:18.912Z,-0.33
2023-03-02T05:21:45.394Z,-0.42
2023-03-02T05:24:12.956Z,-0.45
2023-03-02T05:26:40.080Z,-0.42
2023-03-02T05:29:06.538Z,-0.47
2023-03-02T05:31:35.717Z,-0.43
2023-03-02T05:34:03.732Z,-0.43
2023-03-02T05:36:30.327Z,-0.48
2023-03-02T05:38:58.225Z,-0.54
2023-03-02T05:41:24.833Z,-0.58
2023-03-02T05:43:51.619Z,-0.55
2023-03-02T05:46:19.442Z,-0.58
2023-03-02T05:48:47.239Z,-0.69
2023-03-02T05:51:13.644Z,-0.85
2023-03-02T05:53:40.063Z,-0.96
2023-03-02T05:56:07.171Z,-1.00
2023-03-02T05:58:33.570Z,-0.93
2023-03-02T06:01:00.842Z,-1.26
2023-03-02T06:03:27.240Z,-1.55
2023-03-02T06:05:53.642Z,-1.46
2023-03-02T06:08:21.538Z,-1.31
2023-03-02T06:10:50.556Z,-1.42
2023-03-02T06:13:16.965Z,-1.14
2023-03-02T06:15:43.815Z,-1.24
2023-03-02T06:18:12.396Z,-1.19
2023-03-02T06:20:39.495Z,-0.97
2023-03-02T06:23:06.396Z,-1.00
2023-03-02T06:25:32.817Z,-1.13
2023-03-02T06:27:59.198Z,-1.09
2023-03-02T06:30:26.033Z,-1.39
2023-03-02T06:32:52.571Z,-1.51
2023-03-02T06:35:19.377Z,-1.58
2023-03-02T06:37:45.899Z,-1.58
2023-03-02T06:40:13.668Z,-1.41
2023-03-02T06:42:41.684Z,-1.19
2023-03-02T06:45:09.173Z,-1.22
2023-03-02T06:47:35.569Z,-1.12
2023-03-02T06:50:02.111Z,-0.94
2023-03-02T06:52:28.705Z,-0.88
2023-03-02T06:54:55.325Z,-0.86
2023-03-02T06:57:21.735Z,-0.80
2023-03-02T06:59:48.135Z,-0.79
2023-03-02T07:02:14.549Z,-0.69
2023-03-02T07:04:41.021Z,-0.59
2023-03-02T07:07:07.460Z,-0.65
2023-03-02T07:09:34.040Z,-0.60
2023-03-02T07:12:00.515Z,-0.53
2023-03-02T07:14:26.916Z,-0.57
2023-03-02T07:16:53.878Z,-0.48
2023-03-02T07:19:20.397Z,-0.41
2023-03-02T07:21:46.783Z,-0.33
2023-03-02T07:24:13.159Z,-0.25
2023-03-02T07:26:39.610Z,-0.25
2023-03-02T07:29:05.975Z,-0.28
2023-03-02T07:31:32.699Z,-0.18
2023-03-02T07:33:59.252Z,-0.15
2023-03-02T07:36:26.307Z,-0.01
2023-03-02T07:38:52.775Z,-0.13
2023-03-02T07:41:19.176Z,-0.17
2023-03-02T07:43:45.675Z,-0.02
2023-03-02T07:46:12.130Z,0.12
2023-03-02T07:48:38.528Z,0.27
2023-03-02T07:51:06.204Z,0.10
2023-03-02T07:53:32.738Z,0.07
2023-03-02T07:56:01.263Z,0.31
2023-03-02T07:58:27.899Z,0.06
2023-03-02T08:00:54.331Z,0.27
2023-03-02T08:03:20.760Z,0.54
2023-03-02T08:05:47.203Z,0.70
2023-03-02T08:08:13.630Z,0.67
2023-03-02T08:10:40.178Z,0.76
2023-03-02T08:13:06.563Z,0.93
2023-03-02T08:15:32.953Z,1.01
2023-03-02T08:17:59.353Z,1.10
2023-03-02T08:20:26.216Z,1.15
2023-03-02T08:22:52.665Z,1.14
2023-03-02T08:25:19.122Z,1.19
2023-03-02T08:27:46.087Z,1.21
2023-03-02T08:30:13.245Z,1.54
2023-03-02T08:32:39.852Z,1.32
2023-03-02T08:35:07.095Z,1.46
2023-03-02T08:37:33.952Z,1.55
2023-03-02T08:40:00.331Z,1.71
2023-03-02T08:42:26.753Z,1.58
2023-03-02T08:44:53.144Z,1.62
2023-03-02T08:47:19.584Z,1.81
2023-03-02T08:49:48.022Z,1.80
2023-03-02T08:52:15.213Z,1.60
2023-03-02T08:54:42.009Z,1.43
2023-03-02T08:57:11.418Z,1.63
2023-03-02T08:59:37.809Z,1.97
2023-03-02T09:02:04.214Z,1.79
2023-03-02T09:04:30.669Z,1.98
2023-03-02T09:06:57.091Z,2.12
2023-03-02T09:09:23.508Z,2.34
2023-03-02T09:11:50.088Z,2.47
2023-03-02T09:14:16.698Z,2.47
2023-03-02T09:16:43.204Z,2.69
2023-03-02T09:19:10.668Z,2.74
2023-03-02T09:21:37.035Z,2.78
2023-03-02T09:24:03.467Z,2.90
2023-03-02T09:26:29.823Z,3.00
2023-03-02T09:28:56.899Z,2.80
2023-03-02T09:31:23.725Z,3.03
2023-03-02T09:33:50.179Z,2.94
2023-03-02T09:36:21.545Z,3.25
2023-03-02T09:38:48.389Z,3.35
2023-03-02T09:41:34.608Z,3.70
2023-03-02T09:44:11.161Z,3.60
2023-03-02T09:46:54.526Z,3.83
2023-03-02T09:49:32.052Z,4.01
2023-03-02T09:52:11.636Z,4.31
2023-03-02T09:54:38.923Z,4.19
2023-03-02T09:57:19.625Z,4.44
2023-03-02T09:59:50.114Z,4.77
2023-03-02T10:02:29.710Z,4.83
2023-03-02T10:04:58.079Z,4.95
2023-03-02T10:07:35.725Z,4.73
2023-03-02T10:10:24.281Z,5.27
2023-03-02T10:13:27.929Z,4.81
2023-03-02T10:16:01.171Z,4.84
2023-03-02T10:19:04.471Z,5.02
2023-03-02T10:21:38.224Z,5.03
2023-03-02T10:24:29.752Z,5.10
2023-03-02T10:27:02.117Z,5.66
2023-03-02T10:29:28.562Z,6.04
2023-03-02T10:32:24.252Z,6.19
2023-03-02T10:34:52.167Z,5.92
2023-03-02T10:37:25.200Z,5.87
2023-03-02T10:39:52.369Z,6.16
2023-03-02T10:42:22.688Z,6.63
2023-03-02T10:44:51.705Z,6.50
2023-03-02T10:47:23.765Z,6.97
2023-03-02T10:49:50.794Z,6.81
2023-03-02T10:52:22.787Z,7.26
2023-03-02T10:54:49.221Z,6.76
2023-03-02T10:57:28.902Z,7.37
2023-03-02T11:00:15.678Z,7.49
2023-03-02T11:02:50.134Z,6.65
2023-03-02T11:05:31.755Z,7.00
2023-03-02T11:08:19.527Z,6.84
2023-03-02T11:11:03.365Z,6.93
2023-03-02T11:13:35.752Z,6.72
2023-03-02T11:16:05.038Z,6.81
2023-03-02T11:18:43.147Z,7.02
2023-03-02T11:21:17.544Z,7.36
2023-03-02T11:23:56.550Z,7.52
2023-03-02T11:26:38.246Z,7.34
2023-03-02T11:29:21.583Z,8.00
2023-03-02T11:32:13.749Z,7.73
2023-03-02T11:34:48.840Z,7.83
2023-03-02T11:37:21.588Z,8.09
2023-03-02T11:39:55.045Z,8.19
2023-03-02T11:42:27.263Z,8.52
2023-03-02T11:44:53.899Z,8.92
2023-03-02T11:47:20.504Z,8.57
2023-03-02T11:49:53.094Z,9.43
2023-03-02T11:52:22.321Z,9.35
2023-03-02T11:55:04.019Z,9.79
2023-03-02T11:57:37.950Z,9.22
2023-03-02T12:00:12.774Z,8.77
2023-03-02T12:02:39.174Z,8.87
2023-03-02T12:05:20.459Z,8.67
2023-03-02T12:07:59.755Z,8.58
2023-03-02T12:10:42.306Z,8.66
2023-03-02T12:13:20.367Z,8.63
2023-03-02T12:15:50.758Z,8.39
2023-03-02T12:18:23.468Z,8.35
2023-03-02T12:21:10.361Z,8.08
2023-03-02T12:23:53.377Z,7.94
2023-03-02T12:26:19.782Z,7.77
2023-03-02T12:29:05.016Z,7.89
2023-03-02T12:31:40.662Z,8.23
2023-03-02T12:34:25.652Z,8.33
2023-03-02T12:36:59.693Z,8.40
2023-03-02T12:40:04.367Z,8.69
2023-03-02T12:42:55.791Z,8.30
2023-03-02T12:45:54.927Z,7.72
2023-03-02T12:48:28.341Z,7.81
2023-03-02T12:51:02.668Z,7.69
2023-03-02T12:53:29.703Z,7.83
2023-03-02T12:55:56.461Z,8.04
2023-03-02T12:58:28.002Z,8.26
2023-03-02T13:00:57.255Z,8.53
2023-03-02T13:03:26.249Z,8.43
2023-03-02T13:06:01.394Z,7.85
2023-03-02T13:08:28.813Z,7.92
2023-03-02T13:10:57.057Z,8.08
2023-03-02T13:13:26.894Z,7.94
2023-03-02T13:15:57.780Z,7.73
2023-03-02T13:18:27.498Z,7.93
2023-03-02T13:20:54.336Z,8.09
2023-03-02T13:23:20.936Z,8.19
2023-03-02T13:25:52.575Z,7.90
2023-03-02T13:28:36.169Z,8.14
2023-03-02T13:31:14.476Z,7.83
2023-03-02T13:33:45.130Z,8.07
2023-03-02T13:36:23.684Z,7.81
2023-03-02T13:38:51.941Z,8.33
2023-03-02T13:41:33.220Z,8.45
2023-03-02T13:44:00.105Z,8.35
2023-03-02T13:46:29.251Z,8.45
2023-03-02T13:49:09.143Z,8.69
2023-03-02T13:51:40.395Z,9.30
2023-03-02T13:54:35.032Z,10.02
2023-03-02T13:57:03.426Z,10.42
2023-03-02T13:59:32.052Z,10.83
2023-03-02T14:01:58.799Z,9.87
2023-03-02T14:04:25.310Z,10.05
2023-03-02T14:06:53.316Z,10.67
2023-03-02T14:09:20.216Z,11.70
2023-03-02T14:11:55.196Z,12.06
2023-03-02T14:14:23.989Z,13.00
2023-03-02T14:16:51.058Z,14.21
2023-03-02T14:19:18.328Z,13.60
2023-03-02T14:21:45.815Z,13.15
2023-03-02T14:24:12.240Z,13.90
2023-03-02T14:26:46.246Z,13.04
2023-03-02T14:29:23.610Z,11.48
2023-03-02T14:31:50.028Z,11.47
2023-03-02T14:34:17.325Z,11.36
2023-03-02T14:36:45.836Z,11.32
2023-03-02T14:39:21.938Z,11.78
2023-03-02T14:41:53.813Z,11.68
2023-03-02T14:44:20.743Z,12.61
2023-03-02T14:46:47.461Z,11.79
2023-03-02T14:49:13.980Z,11.78
2023-03-02T14:51:41.814Z,11.76
2023-03-02T14:54:12.907Z,11.79
2023-03-02T14:56:39.427Z,11.32
2023-03-02T14:59:05.889Z,12.25
2023-03-02T15:01:32.507Z,10.86
2023-03-02T15:03:59.128Z,9.98
2023-03-02T15:06:28.270Z,9.99
2023-03-02T15:08:59.836Z,9.90
2023-03-02T15:11:27.618Z,9.56
2023-03-02T15:13:54.831Z,9.31
2023-03-02T15:16:21.403Z,9.10
2023-03-02T15:18:52.064Z,9.05
2023-03-02T15:21:21.207Z,8.78
2023-03-02T15:23:47.721Z,8.53
2023-03-02T15:26:14.932Z,9.01
2023-03-02T15:28:41.492Z,8.83
2023-03-02T15:31:09.573Z,8.50
2023-03-02T15:33:36.225Z,8.73
2023-03-02T15:36:03.030Z,8.33
2023-03-02T15:38:29.480Z,8.12
2023-03-02T15:40:55.883Z,8.47
2023-03-02T15:43:22.323Z,8.76
2023-03-02T15:45:48.716Z,8.63
2023-03-02T15:48:15.262Z,8.38
2023-03-02T15:50:41.672Z,8.42
2023-03-02T15:53:08.058Z,8.66
2023-03-02T15:55:34.472Z,8.37
2023-03-02T15:58:00.869Z,8.44
2023-03-02T16:00:27.269Z,8.41
2023-03-02T16:02:53.661Z,8.46
2023-03-02T16:05:20.067Z,8.40
2023-03-02T16:07:46.457Z,8.86
2023-03-02T16:10:16.273Z,8.63
2023-03-02T16:12:42.777Z,8.11
2023-03-02T16:15:09.468Z,7.94
2023-03-02T16:17:35.849Z,7.95
2023-03-02T16:20:02.492Z,7.74
2023-03-02T16:22:28.844Z,7.40
2023-03-02T16:24:55.207Z,7.26
2023-03-02T16:27:21.580Z,7.36
2023-03-02T16:29:48.006Z,7.10
2023-03-02T16:32:14.643Z,7.01
2023-03-02T16:34:41.138Z,6.77
2023-03-02T16:37:07.547Z,6.85
2023-03-02T16:39:33.936Z,6.76
2023-03-02T16:42:00.308Z,6.71
2023-03-02T16:44:26.720Z,6.94
2023-03-02T16:46:53.419Z,6.77
2023-03-02T16:49:20.241Z,6.62
2023-03-02T16:51:46.679Z,6.21
2023-03-02T16:54:15.933Z,6.22
2023-03-02T16:56:45.062Z,5.96
2023-03-02T16:59:11.562Z,6.05
2023-03-02T17:01:37.976Z,6.26
2023-03-02T17:04:06.038Z,6.06
2023-03-02T17:06:32.577Z,6.08
2023-03-02T17:08:59.004Z,6.03
2023-03-02T17:11:25.469Z,6.05
2023-03-02T17:13:51.907Z,5.62
2023-03-02T17:16:19.142Z,5.38
2023-03-02T17:18:48.422Z,5.20
2023-03-02T17:21:16.488Z,5.25
2023-03-02T17:23:43.365Z,5.25
2023-03-02T17:26:09.762Z,5.01
2023-03-02T17:28:36.221Z,4.87
2023-03-02T17:31:04.398Z,4.72
2023-03-02T17:33:32.039Z,4.77
2023-03-02T17:35:58.425Z,4.72
2023-03-02T17:38:24.827Z,4.71
2023-03-02T17:40:51.207Z,4.62
2023-03-02T17:43:17.599Z,4.75
2023-03-02T17:45:44.022Z,4.82
2023-03-02T17:48:10.401Z,4.58
2023-03-02T17:50:37.350Z,4.82
2023-03-02T17:53:04.044Z,4.48
2023-03-02T17:55:30.529Z,4.56
2023-03-02T17:57:57.112Z,4.19
2023-03-02T18:00:24.188Z,4.15
2023-03-02T18:02:51.184Z,4.26
2023-03-02T18:05:18.200Z,4.07
2023-03-02T18:07:44.589Z,3.97
2023-03-02T18:10:11.552Z,3.85
2023-03-02T18:12:38.054Z,3.77
2023-03-02T18:15:05.365Z,3.74
2023-03-02T18:17:31.744Z,3.57
2023-03-02T18:19:58.154Z,3.39
2023-03-02T18:22:24.563Z,3.66
2023-03-02T18:24:51.871Z,3.79
2023-03-02T18:27:18.675Z,3.69
2023-03-02T18:29:45.143Z,3.56
2023-03-02T18:32:11.715Z,3.59
2023-03-02T18:34:38.424Z,3.42
2023-03-02T18:37:04.799Z,3.50
2023-03-02T18:39:31.175Z,3.48
2023-03-02T18:41:57.590Z,3.10
2023-03-02T18:44:27.974Z,3.24
2023-03-02T18:46:55.126Z,3.19
2023-03-02T18:49:21.561Z,3.01
2023-03-02T18:51:48.499Z,3.11
2023-03-02T18:54:14.987Z,3.11
2023-03-02T18:56:41.502Z,3.07
2023-03-02T18:59:09.448Z,2.80
2023-03-02T19:01:35.886Z,2.81
2023-03-02T19:04:03.504Z,2.93
2023-03-02T19:06:29.923Z,2.93
2023-03-02T19:08:56.452Z,2.98
2023-03-02T19:11:22.839Z,2.48
2023-03-02T19:13:49.267Z,2.61
2023-03-02T19:16:17.275Z,2.51
2023-03-02T19:18:44.662Z,2.50
2023-03-02T19:21:11.103Z,2.33
2023-03-02T19:23:38.303Z,2.17
2023-03-02T19:26:04.969Z,2.12
2023-03-02T19:28:33.737Z,2.18
2023-03-02T19:31:03.985Z,2.22
2023-03-02T19:33:30.369Z,2.19
2023-03-02T19:35:56.799Z,1.88
2023-03-02T19:38:23.795Z,2.15
2023-03-02T19:40:50.187Z,2.16
2023-03-02T19:43:16.641Z,2.28
2023-03-02T19:45:43.142Z,2.22
2023-03-02T19:48:13.544Z,2.01
2023-03-02T19:50:40.036Z,1.86
2023-03-02T19:53:06.585Z,1.81
2023-03-02T19:55:34.034Z,1.74
2023-03-02T19:58:01.905Z,1.86
2023-03-02T20:00:30.154Z,1.77
2023-03-02T20:02:57.457Z,1.63
2023-03-02T20:05:25.839Z,1.65
2023-03-02T20:07:52.226Z,1.67
2023-03-02T20:10:31.502Z,1.39
2023-03-02T20:12:59.555Z,1.35
2023-03-02T20:15:30.257Z,1.20
2023-03-02T20:17:58.317Z,0.89
2023-03-02T20:20:26.829Z,0.99
2023-03-02T20:22:53.442Z,0.82
2023-03-02T20:25:20.231Z,0.70
2023-03-02T20:27:49.038Z,0.76
2023-03-02T20:30:19.500Z,0.82
2023-03-02T20:32:45.880Z,1.11
2023-03-02T20:35:12.809Z,1.19
2023-03-02T20:37:39.670Z,1.31
2023-03-02T20:40:07.718Z,1.07
2023-03-02T20:42:35.940Z,1.09
2023-03-02T20:45:04.191Z,1.19
2023-03-02T20:47:30.967Z,1.12
2023-03-02T20:49:57.471Z,0.98
2023-03-02T20:52:23.873Z,1.00
2023-03-02T20:54:50.351Z,1.03
2023-03-02T20:57:19.064Z,1.24
2023-03-02T20:59:45.926Z,1.24
2023-03-02T21:02:17.980Z,1.20
2023-03-02T21:04:44.592Z,1.31
2023-03-02T21:07:11.624Z,1.34
2023-03-02T21:09:39.064Z,1.43
2023-03-02T21:12:08.612Z,1.26
2023-03-02T21:14:35.276Z,1.50
2023-03-02T21:17:01.806Z,1.17
2023-03-02T21:19:32.470Z,1.41
2023-03-02T21:21:58.861Z,1.42
2023-03-02T21:24:25.597Z,1.30
2023-03-02T21:26:53.309Z,1.13
2023-03-02T21:29:21.577Z,1.16
2023-03-02T21:31:48.340Z,1.15
2023-03-02T21:34:15.864Z,1.21
2023-03-02T21:36:43.043Z,1.20
2023-03-02T21:39:09.593Z,1.25
2023-03-02T21:41:36.307Z,1.06
2023-03-02T21:44:05.328Z,1.26
2023-03-02T21:46:33.502Z,1.29
2023-03-02T21:48:59.983Z,1.17
2023-03-02T21:51:26.389Z,1.34
2023-03-02T21:53:53.153Z,1.35
2023-03-02T21:56:22.289Z,1.08
2023-03-02T21:58:49.873Z,1.03
2023-03-02T22:01:16.347Z,0.78
2023-03-02T22:03:42.786Z,1.21
2023-03-02T22:06:20.974Z,1.28
2023-03-02T22:08:47.376Z,1.21
2023-03-02T22:11:20.211Z,1.26
2023-03-02T22:13:48.101Z,1.24
2023-03-02T22:16:16.064Z,1.47
2023-03-02T22:18:43.496Z,1.49
2023-03-02T22:21:25.028Z,1.54
2023-03-02T22:24:10.908Z,1.12
2023-03-02T22:26:40.500Z,1.01
2023-03-02T22:29:18.894Z,1.28
2023-03-02T22:31:47.580Z,1.50
2023-03-02T22:34:33.048Z,1.29
2023-03-02T22:37:10.002Z,1.42
2023-03-02T22:39:36.391Z,1.47
2023-03-02T22:42:15.909Z,1.40
2023-03-02T22:44:42.915Z,1.47
2023-03-02T22:47:15.409Z,1.28
2023-03-02T22:49:41.805Z,1.19
2023-03-02T22:52:14.002Z,1.41
2023-03-02T22:54:40.287Z,1.17
2023-03-02T22:57:17.845Z,1.20
2023-03-02T22:59:44.268Z,1.31
2023-03-02T23:02:17.970Z,1.40
2023-03-02T23:04:45.600Z,1.38
2023-03-02T23:07:19.673Z,1.42
2023-03-02T23:09:46.116Z,1.37
2023-03-02T23:12:19.314Z,1.44
2023-03-02T23:14:51.363Z,1.50
2023-03-02T23:17:26.481Z,1.57
2023-03-02T23:19:52.918Z,1.44
2023-03-02T23:22:19.477Z,1.34
2023-03-02T23:24:45.876Z,1.52
2023-03-02T23:27:12.312Z,1.17
2023-03-02T23:29:38.726Z,0.72
2023-03-02T23:32:05.346Z,0.87
2023-03-02T23:34:31.872Z,0.78
2023-03-02T23:36:58.913Z,0.73
2023-03-02T23:39:25.872Z,0.92
2023-03-02T23:41:52.393Z,0.79
2023-03-02T23:44:19.327Z,0.94
2023-03-02T23:46:46.399Z,1.12
2023-03-02T23:49:12.802Z,1.19
2023-03-02T23:51:39.301Z,1.25
2023-03-02T23:54:05.725Z,1.20
2023-03-02T23:56:32.146Z,0.90
2023-03-02T23:58:58.569Z,0.77
